New Carlisle, IN (46552)

8:52 PM CDT on March 29, 2017 (GMT -0500)
Bendix Woods County Park | | Change Station

Elev 835 ft 41.66 °N, 86.51 °W | Updated 8 seconds ago

Rain
Rain
46.1 °F
Feels Like 46 °F
N
0.0
Wind Variable Wind from NNE
Gusts 1.0 mph

Today
High -- | Low -- °F
--% Chance of Precip.
Yesterday
High -- | Low -- °F
Precip. -- in
Pressure 30.13 in
Visibility 10.0 miles
Clouds Few 4800 ft
Few 6000 ft
Overcast 9000 ft
Windchill 46 °F
Dew Point 36 °F
Humidity 68%
Rainfall 0.02 in
Snow Depth Not available.
6:33 AM 7:08 PM
Waxing Crescent, 5% visible
METAR KSBN 300054Z 11014KT 10SM -RA FEW048 FEW060 OVC090 09/01 A3011 RMK AO2 PK WND 11026/0002 RAB04 SLP201 P0000 T00940011
Pressure 30.13 in
Visibility 10.0 miles
Clouds Few 4800 ft
Few 6000 ft
Overcast 9000 ft
Windchill 46 °F
Dew Point 36 °F
Humidity 68%
Rainfall 0.02 in
Snow Depth Not available.
6:33 AM 7:08 PM
Waxing Crescent, 5% visible
METAR KSBN 300054Z 11014KT 10SM -RA FEW048 FEW060 OVC090 09/01 A3011 RMK AO2 PK WND 11026/0002 RAB04 SLP201 P0000 T00940011

Get Severe Weather Alerts

Thanks for signing up!

Be on the lookout for a verification email in your inbox.

You'll start receiving the daily forecast at 8 AM.

×

10-Day Weather Forecast

Almanac

Astronomy

Mar. 29, 2017 Rise Set
Actual Time
Civil Twilight
Nautical Twilight
Astronomical Twilight
Moon
Length of Visible Light
Length of Day
Tomorrow will be .
, % of the Moon is Illuminated

Today's Extremes

State Highs State Lows

Community

WunderPhotos

Upload Photos

1,962,540 photos uploaded!

WunderBlog® & News

Nearby

Air Quality

  Air Quality AQ Index Pollutant
Not available.

Snow Depth

Station Depth Elevation

Earthquake Activity

City Distance Mag. Time & Date
Minimum magnitude displayed is 2.5.

Earthquake Activity

City Distance Mag. Time & Date
Minimum magnitude displayed is 2.5.

Coastal Water Temperatures

Place Temperature

Stations

Nearby Weather Stations

Station Location Temp. Windchill Dew Point Humidity Wind Precip. Elev Updated Type
                   

Watches & Warnings

There are currently no watches in effect.